Time;durP1;ratioP1;P1;durP2;ratioP2;P2;SDS_P1;SDS_P2;PMS_P1;PMS_P2;Temp;Humidity;BMP_temperature;BMP_pressure;BME280_temperature;BME280_humidity;BME280_pressure;Samples;Min_cycle;Max_cycle;Signal;HPM_P1;HPM_P2
2023/07/29 00:00:19;;;;;;;4.83;4.30;;;;;;;19.90;100.00;100637.69;5252562;28;20316;-68
2023/07/29 00:02:50;;;;;;;5.53;4.23;;;;;;;19.91;100.00;100631.38;5254565;28;20094;-68
2023/07/29 00:05:22;;;;;;;4.47;4.07;;;;;;;19.93;100.00;100633.84;5255489;28;20166;-69
2023/07/29 00:07:53;;;;;;;4.37;3.90;;;;;;;19.91;100.00;100622.56;5253743;28;20040;-68
2023/07/29 00:10:24;;;;;;;4.70;3.97;;;;;;;19.89;100.00;100625.44;5253237;28;20036;-68
2023/07/29 00:12:56;;;;;;;4.60;4.20;;;;;;;19.81;100.00;100622.94;5253679;28;20103;-69
2023/07/29 00:15:27;;;;;;;6.17;4.57;;;;;;;19.87;100.00;100629.31;5255155;28;20035;-69
2023/07/29 00:17:58;;;;;;;5.63;4.50;;;;;;;19.81;100.00;100633.56;5235320;28;20572;-68
2023/07/29 00:20:29;;;;;;;5.40;4.80;;;;;;;19.80;100.00;100639.06;5253408;28;20086;-69
2023/07/29 00:23:02;;;;;;;5.10;4.47;;;;;;;19.82;100.00;100631.72;5253515;28;20406;-69
2023/07/29 00:25:33;;;;;;;5.65;4.45;;;;;;;19.82;100.00;100626.41;5251162;28;20460;-68
2023/07/29 00:28:04;;;;;;;10.77;4.97;;;;;;;19.84;100.00;100625.19;5253562;28;20029;-69
2023/07/29 00:30:36;;;;;;;5.80;4.57;;;;;;;19.82;100.00;100629.88;5253745;28;20025;-68
2023/07/29 00:33:07;;;;;;;6.85;4.88;;;;;;;19.81;100.00;100628.25;5253638;28;20041;-69
2023/07/29 00:35:38;;;;;;;5.10;4.60;;;;;;;19.83;100.00;100623.56;5252792;28;20033;-69
2023/07/29 00:38:10;;;;;;;5.87;5.23;;;;;;;19.83;100.00;100614.75;5253302;28;20036;-68
2023/07/29 00:40:41;;;;;;;8.03;4.90;;;;;;;19.74;100.00;100605.31;5251382;28;20029;-69
2023/07/29 00:43:12;;;;;;;5.50;4.80;;;;;;;19.70;100.00;100615.50;5254954;28;20043;-69
2023/07/29 00:45:44;;;;;;;6.67;5.20;;;;;;;19.61;100.00;100606.81;5255147;28;20112;-69
2023/07/29 00:48:16;;;;;;;6.32;4.82;;;;;;;19.64;100.00;100595.84;5255233;28;20044;-68
2023/07/29 00:50:47;;;;;;;7.33;5.13;;;;;;;19.63;100.00;100604.03;5252492;28;20021;-68
2023/07/29 00:53:19;;;;;;;5.90;5.27;;;;;;;19.62;100.00;100600.53;5254846;28;20406;-68
2023/07/29 00:55:50;;;;;;;5.80;5.20;;;;;;;19.70;100.00;100594.25;5251762;28;20028;-69
2023/07/29 00:58:21;;;;;;;6.17;4.67;;;;;;;19.63;100.00;100596.03;5253114;28;20028;-69
2023/07/29 01:00:54;;;;;;;7.30;4.90;;;;;;;19.61;100.00;100592.72;5253046;28;20040;-69
2023/07/29 01:03:25;;;;;;;5.90;4.93;;;;;;;19.57;100.00;100602.09;5251125;28;20029;-70
2023/07/29 01:06:37;;;;;;;6.10;4.80;;;;;;;19.86;100.00;100601.91;5252311;28;20531;-70
2023/07/29 01:09:25;;;;;;;6.85;5.05;;;;;;;19.62;100.00;100599.69;5253540;28;20039;-70
2023/07/29 01:12:07;;;;;;;6.88;5.00;;;;;;;19.62;100.00;100605.84;5252777;28;20036;-69
2023/07/29 01:14:57;;;;;;;8.27;5.07;;;;;;;19.80;100.00;100607.16;5250593;28;20081;-69
2023/07/29 01:17:35;;;;;;;7.65;5.50;;;;;;;19.56;100.00;100606.59;5254112;28;20112;-70
2023/07/29 01:20:09;;;;;;;5.43;4.85;;;;;;;19.41;100.00;100597.91;5253219;28;20163;-70
2023/07/29 01:22:41;;;;;;;6.03;5.28;;;;;;;19.39;100.00;100602.59;5252562;28;20112;-70
2023/07/29 01:25:13;;;;;;;5.50;5.05;;;;;;;19.41;100.00;100603.22;5253582;28;20045;-69
2023/07/29 01:27:46;;;;;;;6.80;5.20;;;;;;;19.40;100.00;100607.72;5250951;28;20592;-69
2023/07/29 01:30:18;;;;;;;6.22;5.38;;;;;;;19.37;100.00;100607.28;5250293;28;20115;-69
2023/07/29 01:33:15;;;;;;;7.63;5.32;;;;;;;19.59;100.00;100608.88;5251449;28;20033;-69
2023/07/29 01:35:54;;;;;;;5.68;4.50;;;;;;;19.47;100.00;100606.94;5253441;28;20047;-69
2023/07/29 01:38:34;;;;;;;7.68;4.78;;;;;;;19.37;100.00;100601.97;5252351;28;20024;-69
2023/07/29 01:41:08;;;;;;;6.25;4.68;;;;;;;19.32;100.00;100613.19;5250109;28;20072;-69
2023/07/29 01:43:43;;;;;;;6.22;4.88;;;;;;;19.28;100.00;100614.59;5253958;28;20032;-70
2023/07/29 01:46:15;;;;;;;6.68;4.57;;;;;;;19.29;100.00;100626.03;5253375;28;20102;-69
2023/07/29 01:48:46;;;;;;;5.93;4.55;;;;;;;19.29;100.00;100624.19;5253114;28;20258;-69
2023/07/29 01:51:18;;;;;;;5.60;4.70;;;;;;;19.30;100.00;100623.16;5251088;28;20043;-68
2023/07/29 01:53:49;;;;;;;5.93;4.47;;;;;;;19.26;100.00;100621.09;5249743;28;20033;-70
2023/07/29 01:56:20;;;;;;;5.13;4.30;;;;;;;19.25;100.00;100624.78;5252933;28;20032;-69
2023/07/29 01:58:52;;;;;;;4.63;4.03;;;;;;;19.24;100.00;100618.63;5253005;28;20037;-70
2023/07/29 02:01:23;;;;;;;4.82;3.95;;;;;;;19.26;100.00;100621.09;5251538;28;20544;-69
2023/07/29 02:03:54;;;;;;;4.53;3.93;;;;;;;19.28;100.00;100619.06;5252033;28;20645;-69
2023/07/29 02:06:27;;;;;;;5.35;4.07;;;;;;;19.28;100.00;100619.06;5252353;28;20029;-71
2023/07/29 02:08:58;;;;;;;7.47;3.60;;;;;;;19.28;100.00;100614.59;5252607;28;20028;-70
2023/07/29 02:11:30;;;;;;;6.77;3.77;;;;;;;19.31;100.00;100613.34;5249299;28;20029;-69
2023/07/29 02:14:01;;;;;;;4.78;3.58;;;;;;;19.30;100.00;100615.19;5252515;28;20060;-70
2023/07/29 02:16:34;;;;;;;4.50;3.10;;;;;;;19.26;100.00;100607.81;5252605;28;20036;-69
2023/07/29 02:19:05;;;;;;;;;;;;;;;19.97;100.00;100595.19;5250720;28;20032;-70
2023/07/29 02:21:36;;;;;;;7.33;3.30;;;;;;;19.24;100.00;100593.88;5250670;28;19912;-72
2023/07/29 02:24:07;;;;;;;4.77;3.10;;;;;;;19.25;100.00;100603.53;5253330;28;20066;-68
2023/07/29 02:26:39;;;;;;;3.92;2.90;;;;;;;19.19;100.00;100602.44;5249786;28;20082;-71
2023/07/29 02:29:10;;;;;;;3.92;3.08;;;;;;;19.19;100.00;100591.81;5252680;28;20024;-68
2023/07/29 02:31:41;;;;;;;4.90;3.05;;;;;;;19.14;100.00;100591.59;5252176;28;20394;-70
2023/07/29 02:34:13;;;;;;;4.18;2.90;;;;;;;19.10;100.00;100603.59;5252197;28;20017;-71
2023/07/29 02:36:45;;;;;;;4.05;3.45;;;;;;;19.09;100.00;100596.63;5251641;28;20029;-70
2023/07/29 02:39:17;;;;;;;4.40;3.17;;;;;;;19.08;100.00;100601.13;5251480;28;20013;-69
2023/07/29 02:41:48;;;;;;;3.90;2.87;;;;;;;19.02;100.00;100595.78;5251010;28;20033;-72
2023/07/29 02:44:19;;;;;;;4.65;3.08;;;;;;;18.98;100.00;100587.38;5251561;28;20021;-70
2023/07/29 02:46:52;;;;;;;4.57;3.15;;;;;;;19.04;100.00;100599.88;5252336;28;20064;-69
2023/07/29 02:49:23;;;;;;;4.40;3.15;;;;;;;18.96;100.00;100592.03;5252047;28;20029;-70
2023/07/29 02:51:55;;;;;;;3.65;2.72;;;;;;;19.01;100.00;100591.47;5246874;28;20044;-69
2023/07/29 02:54:26;;;;;;;3.40;3.10;;;;;;;18.98;100.00;100592.69;5251643;28;20035;-70
2023/07/29 02:56:57;;;;;;;4.80;3.17;;;;;;;18.97;100.00;100593.69;5251139;28;20043;-71
2023/07/29 02:59:28;;;;;;;5.70;3.08;;;;;;;18.94;100.00;100586.94;5250050;28;20075;-70
2023/07/29 03:02:00;;;;;;;4.60;3.42;;;;;;;18.94;100.00;100578.97;5251436;28;20750;-70
2023/07/29 03:04:31;;;;;;;6.13;4.00;;;;;;;18.92;100.00;100583.63;5250528;28;20060;-69
2023/07/29 03:07:03;;;;;;;5.10;3.63;;;;;;;18.91;100.00;100586.50;5250184;28;20052;-69
2023/07/29 03:09:34;;;;;;;6.03;3.63;;;;;;;18.89;100.00;100585.84;5250290;28;20029;-69
2023/07/29 03:12:06;;;;;;;5.50;3.87;;;;;;;18.88;100.00;100582.38;5251304;28;20024;-70
2023/07/29 03:14:37;;;;;;;5.80;3.78;;;;;;;18.85;100.00;100568.66;5251754;28;20699;-69
2023/07/29 03:17:09;;;;;;;6.77;3.87;;;;;;;18.84;100.00;100586.44;5251202;28;20068;-70
2023/07/29 03:19:40;;;;;;;4.50;3.53;;;;;;;18.79;100.00;100596.81;5250912;28;20381;-70
2023/07/29 03:22:11;;;;;;;5.15;3.67;;;;;;;18.74;100.00;100587.75;5250991;28;20044;-69
2023/07/29 03:24:43;;;;;;;4.28;3.78;;;;;;;18.80;100.00;100600.28;5247769;28;20032;-71
2023/07/29 03:27:15;;;;;;;5.43;3.40;;;;;;;18.74;100.00;100612.47;5232533;28;20036;-69
2023/07/29 03:29:47;;;;;;;4.18;3.60;;;;;;;18.72;100.00;100603.88;5251167;28;20394;-70
2023/07/29 03:32:18;;;;;;;10.20;4.53;;;;;;;18.69;100.00;100598.91;5251178;28;20033;-69
2023/07/29 03:34:50;;;;;;;8.60;3.80;;;;;;;18.68;100.00;100598.09;5250190;28;20393;-69
2023/07/29 03:37:21;;;;;;;4.28;3.63;;;;;;;18.68;100.00;100610.53;5250039;28;20489;-70
2023/07/29 03:39:52;;;;;;;4.60;3.50;;;;;;;18.67;100.00;100599.09;5249242;28;20059;-70
2023/07/29 03:42:23;;;;;;;8.33;4.07;;;;;;;18.63;100.00;100605.78;5250141;28;20476;-70
2023/07/29 03:44:55;;;;;;;4.72;3.30;;;;;;;18.58;100.00;100599.41;5251667;28;20521;-72
2023/07/29 03:47:27;;;;;;;5.23;3.60;;;;;;;18.58;100.00;100602.06;5249969;28;20029;-70
2023/07/29 03:49:58;;;;;;;5.90;3.92;;;;;;;18.52;100.00;100613.41;5251001;28;20467;-70
2023/07/29 03:52:29;;;;;;;6.15;4.00;;;;;;;18.54;100.00;100606.09;5233716;28;20048;-69
2023/07/29 03:55:00;;;;;;;5.93;3.90;;;;;;;18.54;100.00;100580.41;5249482;28;20025;-72
2023/07/29 03:57:32;;;;;;;5.32;3.17;;;;;;;18.53;100.00;100573.44;5251491;28;20064;-69
2023/07/29 04:00:04;;;;;;;4.70;3.47;;;;;;;18.52;100.00;100552.41;5251066;28;20283;-69
2023/07/29 04:02:38;;;;;;;4.28;3.85;;;;;;;18.48;100.00;100565.22;5250790;28;20482;-68
2023/07/29 04:05:09;;;;;;;4.00;3.15;;;;;;;18.46;100.00;100557.47;5255464;28;20031;-69
2023/07/29 04:07:41;;;;;;;5.45;4.07;;;;;;;18.48;100.00;100566.03;5254700;28;20398;-71
2023/07/29 04:10:12;;;;;;;5.82;4.00;;;;;;;18.46;100.00;100554.00;5254988;28;21162;-68
2023/07/29 04:12:44;;;;;;;4.07;3.67;;;;;;;18.45;100.00;100553.16;5253347;28;20033;-68
2023/07/29 04:15:15;;;;;;;4.03;3.13;;;;;;;18.47;100.00;100552.97;5253791;28;20559;-70
2023/07/29 04:17:46;;;;;;;5.83;3.60;;;;;;;18.44;100.00;100563.94;5254979;28;20053;-68
2023/07/29 04:20:18;;;;;;;4.75;3.33;;;;;;;18.43;100.00;100580.88;5251308;28;20033;-68
2023/07/29 04:22:49;;;;;;;6.90;3.03;;;;;;;18.42;100.00;100597.81;5255081;28;20055;-69
2023/07/29 04:25:20;;;;;;;7.38;3.40;;;;;;;18.40;100.00;100599.81;5254134;28;20063;-68
2023/07/29 04:27:51;;;;;;;4.20;3.57;;;;;;;18.39;100.00;100611.44;5252484;28;20044;-68
2023/07/29 04:30:23;;;;;;;4.28;3.22;;;;;;;18.40;100.00;100613.91;5252060;28;20091;-69
2023/07/29 04:32:54;;;;;;;4.33;3.20;;;;;;;18.39;100.00;100612.25;5254301;28;20071;-71
2023/07/29 04:35:25;;;;;;;4.35;2.75;;;;;;;18.39;100.00;100603.50;5254136;28;20040;-69
2023/07/29 04:37:57;;;;;;;5.32;3.13;;;;;;;18.40;100.00;100603.28;5252212;28;20032;-68
2023/07/29 04:40:28;;;;;;;4.40;3.00;;;;;;;18.41;100.00;100606.75;5254510;28;20021;-68
2023/07/29 04:43:02;;;;;;;3.92;3.20;;;;;;;18.46;100.00;100618.47;5253261;28;20025;-68
2023/07/29 04:45:33;;;;;;;4.18;3.00;;;;;;;18.40;100.00;100624.50;5253722;28;20040;-68
2023/07/29 04:48:04;;;;;;;7.00;3.05;;;;;;;18.44;100.00;100622.31;5252887;28;20017;-69
2023/07/29 04:50:36;;;;;;;4.78;2.80;;;;;;;18.43;100.00;100615.38;5253028;28;20036;-68
2023/07/29 04:53:07;;;;;;;3.73;2.70;;;;;;;18.47;100.00;100619.28;5254072;28;20490;-70
2023/07/29 04:55:42;;;;;;;5.82;2.90;;;;;;;18.46;100.00;100612.34;5253658;28;20501;-69
2023/07/29 04:58:13;;;;;;;3.55;2.50;;;;;;;18.42;100.00;100619.03;5253935;28;20033;-70
2023/07/29 05:00:46;;;;;;;4.13;2.45;;;;;;;18.51;100.00;100623.22;5252604;28;20542;-68
2023/07/29 05:03:18;;;;;;;3.95;2.50;;;;;;;18.35;100.00;100613.66;5253874;28;20041;-69
2023/07/29 05:05:51;;;;;;;4.32;2.47;;;;;;;18.43;100.00;100631.28;5252405;28;20021;-68
2023/07/29 05:08:22;;;;;;;4.70;2.67;;;;;;;18.40;100.00;100632.47;5254043;28;20474;-68
2023/07/29 05:10:54;;;;;;;4.63;2.30;;;;;;;18.43;100.00;100631.28;5252640;28;20040;-68
2023/07/29 05:13:25;;;;;;;6.35;2.38;;;;;;;18.46;100.00;100639.69;5248864;28;20112;-68
2023/07/29 05:15:56;;;;;;;3.10;2.43;;;;;;;18.52;100.00;100640.75;5251197;28;20557;-69
2023/07/29 05:18:28;;;;;;;4.22;2.20;;;;;;;18.58;100.00;100647.97;5253278;28;20589;-69
2023/07/29 05:20:59;;;;;;;6.78;2.72;;;;;;;18.58;100.00;100649.81;5251546;28;20091;-68
2023/07/29 05:23:30;;;;;;;2.83;2.28;;;;;;;18.55;100.00;100626.31;5253010;28;20035;-68
2023/07/29 05:26:01;;;;;;;4.07;2.30;;;;;;;18.61;100.00;100636.19;5253008;28;20037;-70
2023/07/29 05:28:33;;;;;;;5.43;2.50;;;;;;;18.61;100.00;100636.19;5251999;28;20375;-69
2023/07/29 05:31:04;;;;;;;3.33;2.80;;;;;;;18.59;100.00;100628.41;5251412;28;20486;-70
2023/07/29 05:33:36;;;;;;;3.93;2.17;;;;;;;18.64;100.00;100633.97;5252066;28;20466;-69
2023/07/29 05:36:07;;;;;;;4.80;2.40;;;;;;;18.59;100.00;100622.28;5252669;28;20028;-68
2023/07/29 05:38:38;;;;;;;3.22;2.45;;;;;;;18.67;100.00;100635.41;5251087;28;20383;-70
2023/07/29 05:41:09;;;;;;;2.83;2.00;;;;;;;18.71;100.00;100637.56;5252368;28;20402;-70
2023/07/29 05:43:43;;;;;;;3.28;2.33;;;;;;;18.73;100.00;100626.75;5252860;28;20025;-68
2023/07/29 05:46:14;;;;;;;3.72;2.33;;;;;;;18.74;100.00;100627.56;5252055;28;22023;-70
2023/07/29 05:48:45;;;;;;;3.78;2.40;;;;;;;18.84;100.00;100634.22;5251680;28;20029;-72
2023/07/29 05:51:17;;;;;;;3.55;2.58;;;;;;;18.90;100.00;100637.91;5252795;28;20552;-68
2023/07/29 05:53:48;;;;;;;3.80;2.87;;;;;;;18.95;100.00;100639.00;5249137;28;20697;-70
2023/07/29 05:56:20;;;;;;;4.85;2.58;;;;;;;19.00;100.00;100635.78;5252143;28;20021;-69
2023/07/29 05:58:51;;;;;;;7.45;2.95;;;;;;;19.07;100.00;100641.97;5252799;28;20020;-70
2023/07/29 06:01:23;;;;;;;3.28;2.50;;;;;;;19.13;100.00;100622.63;5250088;28;20638;-69
2023/07/29 06:03:54;;;;;;;3.47;3.10;;;;;;;19.28;100.00;100629.69;5246248;28;20474;-71
2023/07/29 06:06:25;;;;;;;3.47;2.43;;;;;;;19.32;100.00;100634.44;5253009;28;20466;-70
2023/07/29 06:08:57;;;;;;;3.25;2.60;;;;;;;19.46;100.00;100632.69;5252288;28;20386;-68
2023/07/29 06:11:29;;;;;;;5.07;2.88;;;;;;;19.53;100.00;100643.38;5251329;28;20577;-68
2023/07/29 06:14:00;;;;;;;3.00;2.57;;;;;;;19.61;100.00;100638.72;5251627;28;20032;-72
2023/07/29 06:16:31;;;;;;;4.77;2.73;;;;;;;19.73;100.00;100638.19;5252388;28;20035;-68
2023/07/29 06:19:02;;;;;;;3.53;2.87;;;;;;;19.82;100.00;100624.56;5249795;28;20370;-71
2023/07/29 06:21:34;;;;;;;3.60;2.53;;;;;;;19.90;100.00;100623.59;5250617;28;20028;-70
2023/07/29 06:24:06;;;;;;;4.13;2.50;;;;;;;19.89;100.00;100622.78;5252510;28;20319;-69
2023/07/29 06:26:37;;;;;;;4.43;2.40;;;;;;;19.95;100.00;100623.81;5251156;28;20061;-68
2023/07/29 06:29:08;;;;;;;3.83;2.63;;;;;;;19.96;100.00;100630.75;5248654;28;20036;-69
2023/07/29 06:31:39;;;;;;;4.20;2.70;;;;;;;19.91;100.00;100627.88;5251131;28;21782;-70
2023/07/29 06:34:11;;;;;;;3.87;2.67;;;;;;;19.99;100.00;100625.06;5251641;28;20029;-69
2023/07/29 06:36:42;;;;;;;3.93;2.40;;;;;;;20.02;100.00;100627.34;5249959;28;20048;-68
2023/07/29 06:39:13;;;;;;;4.30;2.40;;;;;;;20.14;100.00;100632.91;5248012;28;20079;-71
2023/07/29 06:41:45;;;;;;;4.47;2.40;;;;;;;20.20;100.00;100621.47;5252067;28;20040;-69
2023/07/29 06:44:16;;;;;;;4.43;2.50;;;;;;;20.22;100.00;100622.09;5251871;28;20047;-69
2023/07/29 06:46:47;;;;;;;3.97;2.07;;;;;;;20.26;100.00;100625.19;5250311;28;20039;-69
2023/07/29 06:49:18;;;;;;;2.97;2.33;;;;;;;20.22;100.00;100622.09;5252056;28;20035;-69
2023/07/29 06:51:50;;;;;;;3.07;2.00;;;;;;;20.45;100.00;100643.03;5250851;28;20394;-69
2023/07/29 06:54:25;;;;;;;3.80;2.00;;;;;;;20.60;100.00;100640.25;5249649;28;20507;-70
2023/07/29 06:56:56;;;;;;;3.17;1.98;;;;;;;20.49;100.00;100646.13;5251296;28;20033;-68
2023/07/29 06:59:27;;;;;;;3.47;2.20;;;;;;;20.64;100.00;100652.13;5250813;28;20017;-69
2023/07/29 07:01:59;;;;;;;3.13;2.20;;;;;;;20.80;100.00;100650.97;5247790;28;20584;-69
2023/07/29 07:04:31;;;;;;;4.63;1.83;;;;;;;20.83;100.00;100651.38;5245299;28;20064;-67
2023/07/29 07:07:02;;;;;;;3.50;1.97;;;;;;;20.88;100.00;100653.44;5248973;28;20116;-69
2023/07/29 07:09:33;;;;;;;4.10;2.13;;;;;;;20.89;100.00;100647.09;5250207;28;20041;-68
2023/07/29 07:12:05;;;;;;;3.50;2.10;;;;;;;20.96;100.00;100657.75;5250003;28;20033;-69
2023/07/29 07:14:37;;;;;;;2.80;1.83;;;;;;;20.97;100.00;100652.22;5249634;28;20036;-69
2023/07/29 07:17:08;;;;;;;3.33;1.63;;;;;;;20.88;100.00;100648.13;5249056;28;20080;-69
2023/07/29 07:19:39;;;;;;;4.30;1.70;;;;;;;20.99;100.00;100650.19;5246283;28;20033;-69
2023/07/29 07:22:11;;;;;;;2.20;1.60;;;;;;;21.06;100.00;100656.34;5250697;28;20402;-69
2023/07/29 07:24:42;;;;;;;2.73;1.53;;;;;;;21.09;100.00;100649.75;5247774;28;20029;-69
2023/07/29 07:27:13;;;;;;;2.73;2.03;;;;;;;21.19;100.00;100660.84;5247830;28;20029;-68
2023/07/29 07:29:44;;;;;;;5.40;2.20;;;;;;;21.31;100.00;100659.19;5250194;28;21310;-68
2023/07/29 07:32:16;;;;;;;3.87;1.90;;;;;;;21.37;100.00;100657.59;5250284;28;20414;-69
2023/07/29 07:34:47;;;;;;;2.70;1.97;;;;;;;21.39;100.00;100666.19;5247823;28;20455;-68
2023/07/29 07:37:18;;;;;;;2.27;1.60;;;;;;;21.38;100.00;100677.91;5251131;28;20502;-69
2023/07/29 07:39:49;;;;;;;3.20;1.60;;;;;;;21.48;100.00;100670.31;5252967;28;20500;-69
2023/07/29 07:42:21;;;;;;;2.50;1.67;;;;;;;21.54;100.00;100684.66;5254355;28;20033;-69
2023/07/29 07:44:52;;;;;;;2.93;1.80;;;;;;;21.50;100.00;100660.25;5253593;28;20025;-69
2023/07/29 07:47:24;;;;;;;3.73;1.80;;;;;;;21.82;100.00;100676.41;5244852;28;20049;-69
2023/07/29 07:49:55;;;;;;;3.43;1.97;;;;;;;21.95;100.00;100676.38;5236801;28;20036;-69
2023/07/29 07:52:27;;;;;;;3.00;1.57;;;;;;;21.99;100.00;100674.94;5231938;28;20059;-69
2023/07/29 07:54:58;;;;;;;3.38;1.52;;;;;;;22.19;100.00;100684.75;5247037;28;20036;-68
2023/07/29 07:57:30;;;;;;;3.63;1.60;;;;;;;22.36;100.00;100691.28;5255102;28;20082;-69
2023/07/29 08:00:01;;;;;;;3.30;1.70;;;;;;;22.36;100.00;100672.59;5251586;28;20038;-69
2023/07/29 08:02:32;;;;;;;3.63;1.50;;;;;;;22.34;100.00;100677.31;5253618;28;20041;-69
2023/07/29 08:05:04;;;;;;;2.90;1.60;;;;;;;22.33;100.00;100678.34;5254286;28;20514;-69
2023/07/29 08:07:35;;;;;;;2.03;1.23;;;;;;;22.24;100.00;100674.28;5254028;28;20432;-70
2023/07/29 08:10:07;;;;;;;2.00;1.40;;;;;;;22.43;100.00;100670.72;5253579;28;20120;-69
2023/07/29 08:12:38;;;;;;;2.60;1.30;;;;;;;22.46;100.00;100678.28;5251367;28;20035;-69
2023/07/29 08:15:09;;;;;;;1.63;1.20;;;;;;;22.53;100.00;100663.06;5254245;28;20120;-69
2023/07/29 08:17:41;;;;;;;2.17;1.50;;;;;;;22.70;100.00;100683.94;5252560;28;20059;-69
2023/07/29 08:20:12;;;;;;;2.50;1.50;;;;;;;22.59;100.00;100694.25;5253383;28;20053;-68
2023/07/29 08:22:44;;;;;;;3.77;1.50;;;;;;;22.58;100.00;100689.97;5253080;28;20033;-69
2023/07/29 08:25:15;;;;;;;2.00;1.20;;;;;;;22.53;100.00;100691.59;5253956;28;20478;-69
2023/07/29 08:27:46;;;;;;;2.23;1.30;;;;;;;22.42;100.00;100687.75;5253369;28;20044;-68
2023/07/29 08:30:18;;;;;;;2.53;1.40;;;;;;;22.37;100.00;100692.09;5252891;28;20390;-68
2023/07/29 08:32:50;;;;;;;2.10;1.60;;;;;;;22.32;100.00;100690.06;5251360;28;20064;-69
2023/07/29 08:35:21;;;;;;;3.90;1.27;;;;;;;22.39;100.00;100690.03;5252450;28;20394;-69
2023/07/29 08:37:52;;;;;;;1.60;1.20;;;;;;;22.32;100.00;100690.06;5251082;28;20036;-69
2023/07/29 08:40:29;;;;;;;1.80;1.20;;;;;;;22.42;100.00;100681.59;5252942;28;20028;-69
2023/07/29 08:43:04;;;;;;;2.33;1.30;;;;;;;22.22;100.00;100681.69;5250999;28;20029;-69
2023/07/29 08:45:36;;;;;;;2.97;1.25;;;;;;;22.26;100.00;100680.22;5252112;28;20562;-69
2023/07/29 08:48:10;;;;;;;2.20;1.33;;;;;;;22.69;100.00;100677.78;5250859;28;20032;-69
2023/07/29 08:50:43;;;;;;;2.15;1.40;;;;;;;22.88;100.00;100676.03;5251658;28;20028;-69
2023/07/29 08:53:15;;;;;;;1.83;1.20;;;;;;;23.11;100.00;100677.31;5252060;28;20040;-69
2023/07/29 08:55:47;;;;;;;2.03;1.40;;;;;;;23.25;100.00;100678.88;5251501;28;20031;-70
2023/07/29 08:58:18;;;;;;;2.93;1.43;;;;;;;23.27;100.00;100671.47;5253766;28;20319;-69
2023/07/29 09:00:50;;;;;;;3.27;1.10;;;;;;;23.36;100.00;100672.00;5249535;28;20033;-69
2023/07/29 09:03:22;;;;;;;4.38;1.17;;;;;;;23.32;100.00;100674.28;5235101;28;20102;-69
2023/07/29 09:05:56;;;;;;;1.77;1.13;;;;;;;23.33;100.00;100669.75;5247118;28;20748;-69
2023/07/29 09:08:28;;;;;;;2.30;1.10;;;;;;;23.43;100.00;100681.59;5246128;28;20037;-69
2023/07/29 09:11:00;;;;;;;1.57;1.10;;;;;;;23.47;100.00;100682.78;5247284;28;20025;-69
2023/07/29 09:13:31;;;;;;;2.57;1.27;;;;;;;23.46;100.00;100686.53;5253253;28;20029;-69
2023/07/29 09:16:04;;;;;;;2.67;1.67;;;;;;;23.53;100.00;100670.44;5253014;28;20063;-68
2023/07/29 09:18:35;;;;;;;;;;;;;;;24.30;100.00;100665.50;5249199;28;20067;-69
2023/07/29 09:21:06;;;;;;;1.60;1.03;;;;;;;23.69;100.00;100661.03;5252232;28;20390;-69
2023/07/29 09:23:42;;;;;;;2.60;1.20;;;;;;;23.78;100.00;100665.06;5251092;28;20029;-69
2023/07/29 09:26:13;;;;;;;1.70;0.88;;;;;;;23.82;100.00;100658.22;5248482;28;20570;-69
2023/07/29 09:28:52;;;;;;;2.10;1.07;;;;;;;24.19;100.00;100660.91;5250536;28;20033;-69
2023/07/29 09:31:28;;;;;;;2.80;1.30;;;;;;;24.42;100.00;100660.22;5251411;28;20031;-69
2023/07/29 09:34:01;;;;;;;2.00;1.30;;;;;;;24.25;100.00;100658.16;5249049;28;20055;-69
2023/07/29 09:36:33;;;;;;;2.00;1.20;;;;;;;24.44;100.00;100658.97;5249650;28;20040;-70
2023/07/29 09:39:11;;;;;;;1.85;1.15;;;;;;;24.58;100.00;100656.09;5253500;28;20021;-69
2023/07/29 09:41:48;;;;;;;3.67;1.30;;;;;;;24.41;100.00;100658.59;5245492;28;20024;-69
2023/07/29 09:44:19;;;;;;;1.52;1.10;;;;;;;24.35;100.00;100662.97;5252453;28;20033;-70
2023/07/29 09:46:51;;;;;;;3.77;1.30;;;;;;;24.17;100.00;100663.81;5252529;28;20025;-69
2023/07/29 09:49:22;;;;;;;3.73;1.20;;;;;;;24.20;100.00;100667.88;5252774;28;20028;-69
2023/07/29 09:51:55;;;;;;;2.00;1.27;;;;;;;24.16;100.00;100672.06;5251662;28;20041;-69
2023/07/29 09:54:27;;;;;;;1.90;1.15;;;;;;;23.89;100.00;100674.22;5252361;28;20029;-69
2023/07/29 09:56:58;;;;;;;2.07;1.10;;;;;;;23.83;100.00;100677.75;5252857;28;20043;-70
2023/07/29 09:59:33;;;;;;;3.23;1.30;;;;;;;23.82;100.00;100676.94;5251828;28;20075;-69
2023/07/29 10:02:12;;;;;;;2.85;1.10;;;;;;;23.71;100.00;100681.16;5251730;28;20037;-69
2023/07/29 10:04:45;;;;;;;1.48;1.10;;;;;;;23.65;100.00;100683.88;5252857;28;20032;-69
2023/07/29 10:07:17;;;;;;;1.60;1.20;;;;;;;23.73;100.00;100670.25;5252490;28;20036;-69
2023/07/29 10:09:51;;;;;;;2.95;1.33;;;;;;;23.99;100.00;100661.13;5253500;28;20127;-69
2023/07/29 10:12:24;;;;;;;2.40;0.90;;;;;;;24.35;100.00;100657.59;5252922;28;20021;-69
2023/07/29 10:15:02;;;;;;;1.92;1.05;;;;;;;24.60;100.00;100659.38;5254759;28;20074;-69
2023/07/29 10:17:36;;;;;;;2.70;1.30;;;;;;;24.74;100.00;100663.53;5253106;28;20029;-69
2023/07/29 10:20:09;;;;;;;1.73;1.10;;;;;;;24.79;100.00;100660.97;5234653;28;20064;-70
2023/07/29 10:22:42;;;;;;;2.25;1.20;;;;;;;25.10;100.00;100656.41;5253402;28;20490;-70
2023/07/29 10:25:17;;;;;;;1.80;1.13;;;;;;;25.44;100.00;100654.81;5252850;28;20063;-70
2023/07/29 10:27:53;;;;;;;3.88;1.13;;;;;;;25.45;100.00;100651.06;5253069;28;20494;-70
2023/07/29 10:30:25;;;;;;;2.20;1.17;;;;;;;25.63;100.00;100658.19;5251780;28;20025;-70
2023/07/29 10:32:58;;;;;;;1.40;1.10;;;;;;;25.45;100.00;100641.16;5252323;28;20044;-70
2023/07/29 10:35:32;;;;;;;1.80;1.30;;;;;;;25.38;100.00;100642.31;5254238;28;20634;-70
2023/07/29 10:38:05;;;;;;;2.03;1.30;;;;;;;25.45;100.00;100651.06;5255482;28;20029;-70
2023/07/29 10:41:03;;;;;;;;;;;;;;;26.31;100.00;100644.06;5255011;28;20035;-70
2023/07/29 10:43:39;;;;;;;2.35;1.40;;;;;;;25.74;100.00;100638.56;5252600;28;20039;-70
2023/07/29 10:46:18;;;;;;;2.72;1.20;;;;;;;25.62;100.00;100643.97;5255395;28;20032;-70
2023/07/29 10:48:55;;;;;;;1.83;1.25;;;;;;;25.44;100.00;100638.72;5253555;28;20474;-70
2023/07/29 10:51:33;;;;;;;2.35;1.40;;;;;;;25.16;100.00;100629.50;5253546;28;20531;-70
2023/07/29 10:54:14;;;;;;;2.33;1.30;;;;;;;25.37;100.00;100633.47;5250814;28;20028;-70
2023/07/29 10:56:49;;;;;;;2.15;1.23;;;;;;;25.25;100.00;100632.63;5252536;28;20024;-70
2023/07/29 10:59:20;;;;;;;2.00;1.38;;;;;;;25.23;100.00;100632.88;5250840;28;20016;-70
2023/07/29 11:01:58;;;;;;;2.80;1.10;;;;;;;25.31;100.00;100637.09;5250131;28;20056;-70
2023/07/29 11:04:33;;;;;;;2.90;1.38;;;;;;;24.93;100.00;100634.78;5251775;28;20025;-70
2023/07/29 11:07:04;;;;;;;1.75;1.23;;;;;;;24.77;100.00;100644.28;5250335;28;20390;-70
2023/07/29 11:09:47;;;;;;;2.30;1.13;;;;;;;24.92;100.00;100644.66;5252177;28;20048;-69
2023/07/29 11:12:45;;;;;;;2.35;1.50;;;;;;;24.84;100.00;100642.31;5251069;28;20108;-70
2023/07/29 11:15:27;;;;;;;2.42;1.45;;;;;;;24.65;100.00;100638.06;5251008;28;20029;-70
2023/07/29 11:18:00;;;;;;;1.85;1.00;;;;;;;24.57;100.00;100646.44;5250796;28;20025;-70
2023/07/29 11:20:33;;;;;;;2.45;1.33;;;;;;;24.42;100.00;100642.31;5250761;28;20482;-69
2023/07/29 11:23:05;;;;;;;5.47;1.65;;;;;;;24.58;100.00;100640.03;5250312;28;20083;-69
2023/07/29 11:25:38;;;;;;;2.55;1.30;;;;;;;24.80;100.00;100646.50;5251354;28;20029;-70
2023/07/29 11:28:09;;;;;;;3.47;1.40;;;;;;;24.96;100.00;100643.19;5252014;28;20397;-70
2023/07/29 11:30:40;;;;;;;2.00;1.33;;;;;;;25.10;100.00;100643.81;5248680;28;20478;-70
2023/07/29 11:33:12;;;;;;;2.47;1.20;;;;;;;25.21;100.00;100637.66;5247836;28;20440;-70
2023/07/29 11:35:43;;;;;;;4.67;1.60;;;;;;;25.24;100.00;100631.84;5250949;28;20428;-70
2023/07/29 11:38:19;;;;;;;2.00;1.20;;;;;;;25.53;100.00;100631.13;5251431;28;20297;-70
2023/07/29 11:40:58;;;;;;;3.70;1.50;;;;;;;25.74;100.00;100635.91;5249464;28;20480;-70